sensor_id;sensor_type;location;lat;lon;timestamp;P1;durP1;ratioP1;P2;durP2;ratioP2
63975;SDS011;50167;47.958;21.780;2023-03-14T00:01:34;42.40;;;19.70;;
63975;SDS011;50167;47.958;21.780;2023-03-14T00:04:03;39.67;;;19.57;;
63975;SDS011;50167;47.958;21.780;2023-03-14T00:06:34;38.43;;;20.23;;
63975;SDS011;50167;47.958;21.780;2023-03-14T00:09:01;39.23;;;18.50;;
63975;SDS011;50167;47.958;21.780;2023-03-14T00:11:29;33.80;;;18.50;;
63975;SDS011;50167;47.958;21.780;2023-03-14T00:13:57;29.37;;;15.43;;
63975;SDS011;50167;47.958;21.780;2023-03-14T00:16:26;36.03;;;17.57;;
63975;SDS011;50167;47.958;21.780;2023-03-14T00:18:53;37.90;;;17.70;;
63975;SDS011;50167;47.958;21.780;2023-03-14T00:21:20;39.17;;;17.60;;
63975;SDS011;50167;47.958;21.780;2023-03-14T00:23:47;26.90;;;13.47;;
63975;SDS011;50167;47.958;21.780;2023-03-14T00:26:16;25.27;;;14.00;;
63975;SDS011;50167;47.958;21.780;2023-03-14T00:28:45;29.42;;;14.80;;
63975;SDS011;50167;47.958;21.780;2023-03-14T00:31:14;26.17;;;13.67;;
63975;SDS011;50167;47.958;21.780;2023-03-14T00:33:42;21.87;;;11.20;;
63975;SDS011;50167;47.958;21.780;2023-03-14T00:36:12;27.13;;;13.67;;
63975;SDS011;50167;47.958;21.780;2023-03-14T00:38:43;20.77;;;12.70;;
63975;SDS011;50167;47.958;21.780;2023-03-14T00:41:13;19.83;;;10.87;;
63975;SDS011;50167;47.958;21.780;2023-03-14T00:43:44;20.13;;;11.73;;
63975;SDS011;50167;47.958;21.780;2023-03-14T00:46:12;17.77;;;10.30;;
63975;SDS011;50167;47.958;21.780;2023-03-14T00:48:40;22.57;;;11.07;;
63975;SDS011;50167;47.958;21.780;2023-03-14T00:51:07;17.23;;;10.80;;
63975;SDS011;50167;47.958;21.780;2023-03-14T00:53:36;21.40;;;11.93;;
63975;SDS011;50167;47.958;21.780;2023-03-14T00:56:06;24.07;;;14.33;;
63975;SDS011;50167;47.958;21.780;2023-03-14T01:01:10;23.30;;;14.17;;
63975;SDS011;50167;47.958;21.780;2023-03-14T01:03:45;28.87;;;13.97;;
63975;SDS011;50167;47.958;21.780;2023-03-14T01:06:14;27.20;;;12.60;;
63975;SDS011;50167;47.958;21.780;2023-03-14T01:08:44;25.60;;;12.53;;
63975;SDS011;50167;47.958;21.780;2023-03-14T01:11:14;19.53;;;12.10;;
63975;SDS011;50167;47.958;21.780;2023-03-14T01:13:45;22.30;;;13.27;;
63975;SDS011;50167;47.958;21.780;2023-03-14T01:16:12;18.70;;;10.87;;
63975;SDS011;50167;47.958;21.780;2023-03-14T01:18:41;18.77;;;11.03;;
63975;SDS011;50167;47.958;21.780;2023-03-14T01:21:14;20.90;;;11.40;;
63975;SDS011;50167;47.958;21.780;2023-03-14T01:23:51;15.43;;;7.83;;
63975;SDS011;50167;47.958;21.780;2023-03-14T01:26:22;17.87;;;9.97;;
63975;SDS011;50167;47.958;21.780;2023-03-14T01:31:20;20.03;;;10.53;;
63975;SDS011;50167;47.958;21.780;2023-03-14T01:33:47;16.13;;;9.50;;
63975;SDS011;50167;47.958;21.780;2023-03-14T01:36:15;21.03;;;10.30;;
63975;SDS011;50167;47.958;21.780;2023-03-14T01:38:44;21.23;;;9.57;;
63975;SDS011;50167;47.958;21.780;2023-03-14T01:41:14;17.57;;;10.07;;
63975;SDS011;50167;47.958;21.780;2023-03-14T01:43:47;14.37;;;9.53;;
63975;SDS011;50167;47.958;21.780;2023-03-14T01:49:16;16.33;;;10.67;;
63975;SDS011;50167;47.958;21.780;2023-03-14T01:54:41;20.00;;;10.77;;
63975;SDS011;50167;47.958;21.780;2023-03-14T01:57:35;18.83;;;10.87;;
63975;SDS011;50167;47.958;21.780;2023-03-14T02:00:10;18.23;;;9.83;;
63975;SDS011;50167;47.958;21.780;2023-03-14T02:02:45;19.17;;;9.63;;
63975;SDS011;50167;47.958;21.780;2023-03-14T02:05:21;19.10;;;10.97;;
63975;SDS011;50167;47.958;21.780;2023-03-14T02:07:52;19.07;;;10.20;;
63975;SDS011;50167;47.958;21.780;2023-03-14T02:10:26;31.75;;;13.32;;
63975;SDS011;50167;47.958;21.780;2023-03-14T02:13:00;18.27;;;11.17;;
63975;SDS011;50167;47.958;21.780;2023-03-14T02:17:58;21.10;;;9.57;;
63975;SDS011;50167;47.958;21.780;2023-03-14T02:20:35;18.17;;;11.27;;
63975;SDS011;50167;47.958;21.780;2023-03-14T02:23:28;16.17;;;9.70;;
63975;SDS011;50167;47.958;21.780;2023-03-14T02:26:05;13.80;;;8.37;;
63975;SDS011;50167;47.958;21.780;2023-03-14T02:28:54;18.65;;;9.60;;
63975;SDS011;50167;47.958;21.780;2023-03-14T02:31:21;14.40;;;9.90;;
63975;SDS011;50167;47.958;21.780;2023-03-14T02:33:49;15.27;;;9.03;;
63975;SDS011;50167;47.958;21.780;2023-03-14T02:36:18;18.57;;;10.33;;
63975;SDS011;50167;47.958;21.780;2023-03-14T02:41:38;14.68;;;9.18;;
63975;SDS011;50167;47.958;21.780;2023-03-14T02:44:05;14.13;;;8.63;;
63975;SDS011;50167;47.958;21.780;2023-03-14T02:46:33;19.00;;;9.27;;
63975;SDS011;50167;47.958;21.780;2023-03-14T02:49:02;17.20;;;9.23;;
63975;SDS011;50167;47.958;21.780;2023-03-14T02:51:32;16.50;;;8.33;;
63975;SDS011;50167;47.958;21.780;2023-03-14T02:54:00;14.93;;;8.33;;
63975;SDS011;50167;47.958;21.780;2023-03-14T02:56:27;11.93;;;7.80;;
63975;SDS011;50167;47.958;21.780;2023-03-14T02:58:55;19.73;;;8.60;;
63975;SDS011;50167;47.958;21.780;2023-03-14T03:01:24;14.77;;;8.03;;
63975;SDS011;50167;47.958;21.780;2023-03-14T03:03:51;13.77;;;8.00;;
63975;SDS011;50167;47.958;21.780;2023-03-14T03:06:19;17.63;;;8.83;;
63975;SDS011;50167;47.958;21.780;2023-03-14T03:08:47;17.97;;;8.53;;
63975;SDS011;50167;47.958;21.780;2023-03-14T03:11:14;15.57;;;8.37;;
63975;SDS011;50167;47.958;21.780;2023-03-14T03:13:41;15.83;;;9.27;;
63975;SDS011;50167;47.958;21.780;2023-03-14T03:16:08;12.93;;;7.77;;
63975;SDS011;50167;47.958;21.780;2023-03-14T03:18:35;16.40;;;8.80;;
63975;SDS011;50167;47.958;21.780;2023-03-14T03:21:03;12.73;;;8.23;;
63975;SDS011;50167;47.958;21.780;2023-03-14T03:23:32;15.07;;;8.30;;
63975;SDS011;50167;47.958;21.780;2023-03-14T03:25:59;17.10;;;8.70;;
63975;SDS011;50167;47.958;21.780;2023-03-14T03:28:26;18.80;;;8.03;;
63975;SDS011;50167;47.958;21.780;2023-03-14T03:30:54;13.67;;;7.07;;
63975;SDS011;50167;47.958;21.780;2023-03-14T03:33:21;11.67;;;6.93;;
63975;SDS011;50167;47.958;21.780;2023-03-14T03:35:50;10.50;;;6.47;;
63975;SDS011;50167;47.958;21.780;2023-03-14T03:38:18;16.37;;;8.43;;
63975;SDS011;50167;47.958;21.780;2023-03-14T03:40:46;11.83;;;6.77;;
63975;SDS011;50167;47.958;21.780;2023-03-14T03:43:14;14.20;;;6.70;;
63975;SDS011;50167;47.958;21.780;2023-03-14T03:45:41;16.43;;;6.90;;
63975;SDS011;50167;47.958;21.780;2023-03-14T03:48:08;11.97;;;6.73;;
63975;SDS011;50167;47.958;21.780;2023-03-14T03:50:37;13.63;;;7.20;;
63975;SDS011;50167;47.958;21.780;2023-03-14T03:53:13;13.77;;;7.43;;
63975;SDS011;50167;47.958;21.780;2023-03-14T03:55:41;12.83;;;7.03;;
63975;SDS011;50167;47.958;21.780;2023-03-14T03:58:08;12.73;;;7.27;;
63975;SDS011;50167;47.958;21.780;2023-03-14T04:00:36;10.07;;;6.23;;
63975;SDS011;50167;47.958;21.780;2023-03-14T04:03:03;13.83;;;8.17;;
63975;SDS011;50167;47.958;21.780;2023-03-14T04:05:30;15.73;;;7.33;;
63975;SDS011;50167;47.958;21.780;2023-03-14T04:07:58;15.27;;;7.20;;
63975;SDS011;50167;47.958;21.780;2023-03-14T04:10:25;13.00;;;7.50;;
63975;SDS011;50167;47.958;21.780;2023-03-14T04:12:52;16.57;;;8.10;;
63975;SDS011;50167;47.958;21.780;2023-03-14T04:15:19;16.37;;;7.10;;
63975;SDS011;50167;47.958;21.780;2023-03-14T04:17:46;14.27;;;6.87;;
63975;SDS011;50167;47.958;21.780;2023-03-14T04:20:13;10.13;;;6.17;;
63975;SDS011;50167;47.958;21.780;2023-03-14T04:22:41;13.57;;;7.83;;
63975;SDS011;50167;47.958;21.780;2023-03-14T04:25:08;12.43;;;5.77;;
63975;SDS011;50167;47.958;21.780;2023-03-14T04:27:35;9.20;;;5.43;;
63975;SDS011;50167;47.958;21.780;2023-03-14T04:30:03;13.97;;;8.03;;
63975;SDS011;50167;47.958;21.780;2023-03-14T04:32:30;23.20;;;13.07;;
63975;SDS011;50167;47.958;21.780;2023-03-14T04:34:57;16.37;;;8.87;;
63975;SDS011;50167;47.958;21.780;2023-03-14T04:37:24;19.73;;;10.50;;
63975;SDS011;50167;47.958;21.780;2023-03-14T04:39:52;21.40;;;11.50;;
63975;SDS011;50167;47.958;21.780;2023-03-14T04:42:19;22.97;;;10.93;;
63975;SDS011;50167;47.958;21.780;2023-03-14T04:44:46;17.27;;;8.97;;
63975;SDS011;50167;47.958;21.780;2023-03-14T04:47:15;15.07;;;8.17;;
63975;SDS011;50167;47.958;21.780;2023-03-14T04:49:42;20.23;;;8.40;;
63975;SDS011;50167;47.958;21.780;2023-03-14T04:52:09;19.37;;;9.17;;
63975;SDS011;50167;47.958;21.780;2023-03-14T04:54:37;16.53;;;9.83;;
63975;SDS011;50167;47.958;21.780;2023-03-14T04:57:04;15.43;;;7.27;;
63975;SDS011;50167;47.958;21.780;2023-03-14T04:59:31;16.33;;;8.97;;
63975;SDS011;50167;47.958;21.780;2023-03-14T05:01:59;15.60;;;8.10;;
63975;SDS011;50167;47.958;21.780;2023-03-14T05:04:26;19.07;;;8.07;;
63975;SDS011;50167;47.958;21.780;2023-03-14T05:06:53;18.23;;;8.33;;
63975;SDS011;50167;47.958;21.780;2023-03-14T05:09:20;17.57;;;8.23;;
63975;SDS011;50167;47.958;21.780;2023-03-14T05:11:47;19.23;;;8.40;;
63975;SDS011;50167;47.958;21.780;2023-03-14T05:14:14;17.97;;;9.07;;
63975;SDS011;50167;47.958;21.780;2023-03-14T05:16:41;15.10;;;7.90;;
63975;SDS011;50167;47.958;21.780;2023-03-14T05:19:09;10.80;;;7.23;;
63975;SDS011;50167;47.958;21.780;2023-03-14T05:21:37;30.90;;;9.37;;
63975;SDS011;50167;47.958;21.780;2023-03-14T05:24:05;20.80;;;8.33;;
63975;SDS011;50167;47.958;21.780;2023-03-14T05:26:32;13.03;;;8.07;;
63975;SDS011;50167;47.958;21.780;2023-03-14T05:28:59;11.47;;;6.97;;
63975;SDS011;50167;47.958;21.780;2023-03-14T05:31:26;16.23;;;8.33;;
63975;SDS011;50167;47.958;21.780;2023-03-14T05:33:54;11.27;;;7.03;;
63975;SDS011;50167;47.958;21.780;2023-03-14T05:36:21;11.67;;;7.70;;
63975;SDS011;50167;47.958;21.780;2023-03-14T05:38:48;15.63;;;7.13;;
63975;SDS011;50167;47.958;21.780;2023-03-14T05:41:15;15.37;;;7.40;;
63975;SDS011;50167;47.958;21.780;2023-03-14T05:43:42;11.93;;;6.40;;
63975;SDS011;50167;47.958;21.780;2023-03-14T05:46:09;13.53;;;6.83;;
63975;SDS011;50167;47.958;21.780;2023-03-14T05:48:37;15.03;;;7.87;;
63975;SDS011;50167;47.958;21.780;2023-03-14T05:51:04;12.43;;;6.23;;
63975;SDS011;50167;47.958;21.780;2023-03-14T05:53:32;11.53;;;7.00;;
63975;SDS011;50167;47.958;21.780;2023-03-14T05:55:59;35.67;;;9.27;;
63975;SDS011;50167;47.958;21.780;2023-03-14T05:58:26;55.83;;;9.67;;
63975;SDS011;50167;47.958;21.780;2023-03-14T06:00:53;15.03;;;8.80;;
63975;SDS011;50167;47.958;21.780;2023-03-14T06:03:21;18.83;;;8.57;;
63975;SDS011;50167;47.958;21.780;2023-03-14T06:05:53;15.30;;;8.10;;
63975;SDS011;50167;47.958;21.780;2023-03-14T06:08:17;12.93;;;8.20;;
63975;SDS011;50167;47.958;21.780;2023-03-14T06:10:45;17.10;;;8.93;;
63975;SDS011;50167;47.958;21.780;2023-03-14T06:13:12;14.67;;;8.93;;
63975;SDS011;50167;47.958;21.780;2023-03-14T06:15:39;19.73;;;9.60;;
63975;SDS011;50167;47.958;21.780;2023-03-14T06:18:06;17.23;;;10.80;;
63975;SDS011;50167;47.958;21.780;2023-03-14T06:20:37;26.67;;;8.77;;
63975;SDS011;50167;47.958;21.780;2023-03-14T06:23:07;26.60;;;8.97;;
63975;SDS011;50167;47.958;21.780;2023-03-14T06:25:35;20.97;;;11.17;;
63975;SDS011;50167;47.958;21.780;2023-03-14T06:28:03;22.63;;;11.00;;
63975;SDS011;50167;47.958;21.780;2023-03-14T06:30:30;17.30;;;9.37;;
63975;SDS011;50167;47.958;21.780;2023-03-14T06:32:57;15.23;;;9.60;;
63975;SDS011;50167;47.958;21.780;2023-03-14T06:35:25;20.17;;;10.33;;
63975;SDS011;50167;47.958;21.780;2023-03-14T06:37:52;22.27;;;10.80;;
63975;SDS011;50167;47.958;21.780;2023-03-14T06:40:19;18.33;;;10.57;;
63975;SDS011;50167;47.958;21.780;2023-03-14T06:42:47;17.57;;;9.27;;
63975;SDS011;50167;47.958;21.780;2023-03-14T06:45:14;17.00;;;8.63;;
63975;SDS011;50167;47.958;21.780;2023-03-14T06:47:42;18.57;;;10.50;;
63975;SDS011;50167;47.958;21.780;2023-03-14T06:50:09;20.30;;;11.33;;
63975;SDS011;50167;47.958;21.780;2023-03-14T06:52:37;38.33;;;19.60;;
63975;SDS011;50167;47.958;21.780;2023-03-14T06:55:06;69.53;;;35.33;;
63975;SDS011;50167;47.958;21.780;2023-03-14T06:57:35;75.33;;;33.13;;
63975;SDS011;50167;47.958;21.780;2023-03-14T07:00:03;57.17;;;23.37;;
63975;SDS011;50167;47.958;21.780;2023-03-14T07:02:32;49.83;;;21.40;;
63975;SDS011;50167;47.958;21.780;2023-03-14T07:05:00;30.90;;;17.13;;
63975;SDS011;50167;47.958;21.780;2023-03-14T07:07:27;20.90;;;12.63;;
63975;SDS011;50167;47.958;21.780;2023-03-14T07:09:55;19.10;;;12.97;;
63975;SDS011;50167;47.958;21.780;2023-03-14T07:12:22;19.50;;;11.73;;
63975;SDS011;50167;47.958;21.780;2023-03-14T07:14:49;29.33;;;13.37;;
63975;SDS011;50167;47.958;21.780;2023-03-14T07:17:16;38.80;;;19.47;;
63975;SDS011;50167;47.958;21.780;2023-03-14T07:19:43;35.73;;;19.10;;
63975;SDS011;50167;47.958;21.780;2023-03-14T07:22:11;36.50;;;19.77;;
63975;SDS011;50167;47.958;21.780;2023-03-14T07:24:38;48.07;;;20.10;;
63975;SDS011;50167;47.958;21.780;2023-03-14T07:27:05;35.90;;;18.33;;
63975;SDS011;50167;47.958;21.780;2023-03-14T07:29:32;27.57;;;15.13;;
63975;SDS011;50167;47.958;21.780;2023-03-14T07:32:03;22.73;;;11.80;;
63975;SDS011;50167;47.958;21.780;2023-03-14T07:34:30;18.85;;;10.15;;
63975;SDS011;50167;47.958;21.780;2023-03-14T07:36:58;17.33;;;8.73;;
63975;SDS011;50167;47.958;21.780;2023-03-14T07:39:25;16.57;;;8.23;;
63975;SDS011;50167;47.958;21.780;2023-03-14T07:41:52;14.50;;;6.43;;
63975;SDS011;50167;47.958;21.780;2023-03-14T07:44:19;14.17;;;5.57;;
63975;SDS011;50167;47.958;21.780;2023-03-14T07:46:46;17.30;;;7.07;;
63975;SDS011;50167;47.958;21.780;2023-03-14T07:49:13;13.40;;;6.40;;
63975;SDS011;50167;47.958;21.780;2023-03-14T07:51:40;15.03;;;5.80;;
63975;SDS011;50167;47.958;21.780;2023-03-14T07:54:10;11.73;;;4.97;;
63975;SDS011;50167;47.958;21.780;2023-03-14T07:56:37;10.83;;;5.33;;
63975;SDS011;50167;47.958;21.780;2023-03-14T07:59:04;10.90;;;4.63;;
63975;SDS011;50167;47.958;21.780;2023-03-14T08:01:31;9.40;;;3.70;;
63975;SDS011;50167;47.958;21.780;2023-03-14T08:03:59;8.77;;;4.73;;
63975;SDS011;50167;47.958;21.780;2023-03-14T08:06:26;11.07;;;4.20;;
63975;SDS011;50167;47.958;21.780;2023-03-14T08:08:54;7.43;;;3.33;;
63975;SDS011;50167;47.958;21.780;2023-03-14T08:11:21;9.90;;;3.40;;
63975;SDS011;50167;47.958;21.780;2023-03-14T08:13:48;11.67;;;2.63;;
63975;SDS011;50167;47.958;21.780;2023-03-14T08:16:17;16.97;;;2.97;;
63975;SDS011;50167;47.958;21.780;2023-03-14T08:18:44;14.77;;;3.00;;
63975;SDS011;50167;47.958;21.780;2023-03-14T08:21:12;11.53;;;2.50;;
63975;SDS011;50167;47.958;21.780;2023-03-14T08:23:40;15.63;;;3.37;;
63975;SDS011;50167;47.958;21.780;2023-03-14T08:26:07;5.40;;;2.50;;
63975;SDS011;50167;47.958;21.780;2023-03-14T08:28:35;3.63;;;2.13;;
63975;SDS011;50167;47.958;21.780;2023-03-14T08:31:02;7.43;;;2.10;;
63975;SDS011;50167;47.958;21.780;2023-03-14T08:33:30;10.90;;;3.10;;
63975;SDS011;50167;47.958;21.780;2023-03-14T08:35:58;5.00;;;2.10;;
63975;SDS011;50167;47.958;21.780;2023-03-14T08:38:27;15.00;;;3.00;;
63975;SDS011;50167;47.958;21.780;2023-03-14T08:40:57;4.80;;;2.37;;
63975;SDS011;50167;47.958;21.780;2023-03-14T08:43:27;13.77;;;2.73;;
63975;SDS011;50167;47.958;21.780;2023-03-14T08:45:58;11.13;;;2.60;;
63975;SDS011;50167;47.958;21.780;2023-03-14T08:48:27;13.33;;;2.90;;
63975;SDS011;50167;47.958;21.780;2023-03-14T08:51:06;14.67;;;3.63;;
63975;SDS011;50167;47.958;21.780;2023-03-14T08:53:33;13.40;;;2.87;;
63975;SDS011;50167;47.958;21.780;2023-03-14T08:56:00;7.20;;;2.70;;
63975;SDS011;50167;47.958;21.780;2023-03-14T08:58:27;10.93;;;2.97;;
63975;SDS011;50167;47.958;21.780;2023-03-14T09:00:55;12.20;;;3.47;;
63975;SDS011;50167;47.958;21.780;2023-03-14T09:03:23;7.07;;;4.07;;
63975;SDS011;50167;47.958;21.780;2023-03-14T09:05:51;14.97;;;3.93;;
63975;SDS011;50167;47.958;21.780;2023-03-14T09:08:19;15.87;;;4.43;;
63975;SDS011;50167;47.958;21.780;2023-03-14T09:10:46;12.37;;;4.30;;
63975;SDS011;50167;47.958;21.780;2023-03-14T09:13:13;19.60;;;3.97;;
63975;SDS011;50167;47.958;21.780;2023-03-14T09:15:40;10.70;;;4.17;;
63975;SDS011;50167;47.958;21.780;2023-03-14T09:18:08;18.60;;;3.70;;
63975;SDS011;50167;47.958;21.780;2023-03-14T09:20:36;20.60;;;3.83;;
63975;SDS011;50167;47.958;21.780;2023-03-14T09:23:03;19.67;;;3.67;;
63975;SDS011;50167;47.958;21.780;2023-03-14T09:25:30;19.27;;;5.53;;
63975;SDS011;50167;47.958;21.780;2023-03-14T09:27:57;15.73;;;3.73;;
63975;SDS011;50167;47.958;21.780;2023-03-14T09:30:24;18.50;;;3.73;;
63975;SDS011;50167;47.958;21.780;2023-03-14T09:32:51;14.30;;;4.13;;
63975;SDS011;50167;47.958;21.780;2023-03-14T09:35:18;16.60;;;3.63;;
63975;SDS011;50167;47.958;21.780;2023-03-14T09:37:45;20.23;;;3.97;;
63975;SDS011;50167;47.958;21.780;2023-03-14T09:40:13;17.93;;;3.80;;
63975;SDS011;50167;47.958;21.780;2023-03-14T09:42:43;6.55;;;2.60;;
63975;SDS011;50167;47.958;21.780;2023-03-14T09:45:23;15.17;;;2.83;;
63975;SDS011;50167;47.958;21.780;2023-03-14T09:47:44;15.00;;;3.03;;
63975;SDS011;50167;47.958;21.780;2023-03-14T09:50:13;9.40;;;2.60;;
63975;SDS011;50167;47.958;21.780;2023-03-14T09:52:42;9.03;;;4.03;;
63975;SDS011;50167;47.958;21.780;2023-03-14T09:55:21;8.03;;;2.77;;
63975;SDS011;50167;47.958;21.780;2023-03-14T09:57:49;10.47;;;3.23;;
63975;SDS011;50167;47.958;21.780;2023-03-14T10:00:25;10.17;;;5.00;;
63975;SDS011;50167;47.958;21.780;2023-03-14T10:02:56;13.53;;;3.42;;
63975;SDS011;50167;47.958;21.780;2023-03-14T10:05:43;11.57;;;3.27;;
63975;SDS011;50167;47.958;21.780;2023-03-14T10:08:10;13.03;;;3.67;;
63975;SDS011;50167;47.958;21.780;2023-03-14T10:10:40;10.63;;;3.03;;
63975;SDS011;50167;47.958;21.780;2023-03-14T10:15:54;13.67;;;3.30;;
63975;SDS011;50167;47.958;21.780;2023-03-14T10:18:32;9.03;;;3.37;;
63975;SDS011;50167;47.958;21.780;2023-03-14T10:21:06;8.45;;;2.92;;
63975;SDS011;50167;47.958;21.780;2023-03-14T10:23:53;15.60;;;2.90;;
63975;SDS011;50167;47.958;21.780;2023-03-14T10:26:24;11.03;;;3.37;;
63975;SDS011;50167;47.958;21.780;2023-03-14T10:29:01;11.97;;;3.10;;
63975;SDS011;50167;47.958;21.780;2023-03-14T10:31:45;18.30;;;4.73;;
63975;SDS011;50167;47.958;21.780;2023-03-14T10:34:15;11.93;;;3.90;;
63975;SDS011;50167;47.958;21.780;2023-03-14T10:36:45;16.13;;;5.00;;
63975;SDS011;50167;47.958;21.780;2023-03-14T10:39:22;19.20;;;3.77;;
63975;SDS011;50167;47.958;21.780;2023-03-14T10:42:01;14.05;;;3.37;;
63975;SDS011;50167;47.958;21.780;2023-03-14T10:44:42;11.87;;;3.17;;
63975;SDS011;50167;47.958;21.780;2023-03-14T10:47:15;17.13;;;3.90;;
63975;SDS011;50167;47.958;21.780;2023-03-14T10:49:45;19.10;;;4.27;;
63975;SDS011;50167;47.958;21.780;2023-03-14T10:52:26;16.77;;;3.37;;
63975;SDS011;50167;47.958;21.780;2023-03-14T10:54:59;19.97;;;3.40;;
63975;SDS011;50167;47.958;21.780;2023-03-14T10:57:29;16.00;;;3.27;;
63975;SDS011;50167;47.958;21.780;2023-03-14T10:59:57;14.73;;;3.93;;
63975;SDS011;50167;47.958;21.780;2023-03-14T11:07:51;13.27;;;3.77;;
63975;SDS011;50167;47.958;21.780;2023-03-14T11:10:26;16.77;;;3.33;;
63975;SDS011;50167;47.958;21.780;2023-03-14T11:18:56;10.13;;;4.13;;
63975;SDS011;50167;47.958;21.780;2023-03-14T11:27:18;7.60;;;3.00;;
63975;SDS011;50167;47.958;21.780;2023-03-14T11:30:15;10.80;;;3.70;;
63975;SDS011;50167;47.958;21.780;2023-03-14T11:32:56;11.07;;;3.13;;
63975;SDS011;50167;47.958;21.780;2023-03-14T11:35:45;14.13;;;3.20;;
63975;SDS011;50167;47.958;21.780;2023-03-14T11:41:16;13.00;;;3.50;;
63975;SDS011;50167;47.958;21.780;2023-03-14T11:43:57;16.10;;;3.43;;
63975;SDS011;50167;47.958;21.780;2023-03-14T11:49:14;7.80;;;2.73;;
63975;SDS011;50167;47.958;21.780;2023-03-14T11:51:47;16.75;;;3.02;;
63975;SDS011;50167;47.958;21.780;2023-03-14T11:57:22;8.80;;;3.67;;
63975;SDS011;50167;47.958;21.780;2023-03-14T12:08:58;20.62;;;4.50;;
63975;SDS011;50167;47.958;21.780;2023-03-14T12:14:35;9.08;;;3.12;;
63975;SDS011;50167;47.958;21.780;2023-03-14T12:19:39;11.30;;;2.75;;
63975;SDS011;50167;47.958;21.780;2023-03-14T12:24:57;13.38;;;3.77;;
63975;SDS011;50167;47.958;21.780;2023-03-14T12:27:39;9.90;;;3.65;;
63975;SDS011;50167;47.958;21.780;2023-03-14T12:35:50;11.60;;;3.67;;
63975;SDS011;50167;47.958;21.780;2023-03-14T12:43:56;10.20;;;3.22;;
63975;SDS011;50167;47.958;21.780;2023-03-14T12:46:25;8.63;;;3.60;;
63975;SDS011;50167;47.958;21.780;2023-03-14T12:48:55;28.60;;;11.60;;
63975;SDS011;50167;47.958;21.780;2023-03-14T12:51:39;7.40;;;3.87;;
63975;SDS011;50167;47.958;21.780;2023-03-14T13:00:34;11.28;;;2.35;;
63975;SDS011;50167;47.958;21.780;2023-03-14T13:02:37;6.35;;;2.62;;
63975;SDS011;50167;47.958;21.780;2023-03-14T13:10:38;12.00;;;3.20;;
63975;SDS011;50167;47.958;21.780;2023-03-14T13:15:48;8.70;;;3.42;;
63975;SDS011;50167;47.958;21.780;2023-03-14T13:18:23;10.28;;;2.67;;
63975;SDS011;50167;47.958;21.780;2023-03-14T13:21:07;11.18;;;3.35;;
63975;SDS011;50167;47.958;21.780;2023-03-14T13:23:35;17.05;;;2.70;;
63975;SDS011;50167;47.958;21.780;2023-03-14T13:26:06;6.08;;;2.67;;
63975;SDS011;50167;47.958;21.780;2023-03-14T13:28:39;13.50;;;2.95;;
63975;SDS011;50167;47.958;21.780;2023-03-14T13:31:18;17.55;;;2.65;;
63975;SDS011;50167;47.958;21.780;2023-03-14T13:33:43;8.10;;;2.90;;
63975;SDS011;50167;47.958;21.780;2023-03-14T13:36:12;6.17;;;2.77;;
63975;SDS011;50167;47.958;21.780;2023-03-14T13:38:39;14.30;;;3.10;;
63975;SDS011;50167;47.958;21.780;2023-03-14T13:41:10;8.98;;;2.75;;
63975;SDS011;50167;47.958;21.780;2023-03-14T13:43:43;8.13;;;3.27;;
63975;SDS011;50167;47.958;21.780;2023-03-14T13:48:49;14.28;;;5.55;;
63975;SDS011;50167;47.958;21.780;2023-03-14T13:51:21;13.70;;;2.75;;
63975;SDS011;50167;47.958;21.780;2023-03-14T13:53:50;12.18;;;3.02;;
63975;SDS011;50167;47.958;21.780;2023-03-14T13:56:24;7.47;;;2.40;;
63975;SDS011;50167;47.958;21.780;2023-03-14T13:58:51;12.15;;;2.58;;
63975;SDS011;50167;47.958;21.780;2023-03-14T14:01:22;14.28;;;3.02;;
63975;SDS011;50167;47.958;21.780;2023-03-14T14:04:05;11.17;;;2.77;;
63975;SDS011;50167;47.958;21.780;2023-03-14T14:06:46;10.07;;;2.83;;
63975;SDS011;50167;47.958;21.780;2023-03-14T14:09:27;7.77;;;2.60;;
63975;SDS011;50167;47.958;21.780;2023-03-14T14:12:00;11.97;;;3.13;;
63975;SDS011;50167;47.958;21.780;2023-03-14T14:14:35;9.90;;;3.63;;
63975;SDS011;50167;47.958;21.780;2023-03-14T14:17:09;8.17;;;4.40;;
63975;SDS011;50167;47.958;21.780;2023-03-14T14:19:39;22.80;;;8.17;;
63975;SDS011;50167;47.958;21.780;2023-03-14T14:22:10;16.13;;;8.33;;
63975;SDS011;50167;47.958;21.780;2023-03-14T14:24:38;15.50;;;5.83;;
63975;SDS011;50167;47.958;21.780;2023-03-14T14:29:44;11.50;;;3.97;;
63975;SDS011;50167;47.958;21.780;2023-03-14T14:32:20;16.73;;;5.27;;
63975;SDS011;50167;47.958;21.780;2023-03-14T14:34:56;13.60;;;4.07;;
63975;SDS011;50167;47.958;21.780;2023-03-14T14:37:26;12.03;;;3.87;;
63975;SDS011;50167;47.958;21.780;2023-03-14T14:40:22;8.83;;;2.93;;
63975;SDS011;50167;47.958;21.780;2023-03-14T14:42:53;13.20;;;3.40;;
63975;SDS011;50167;47.958;21.780;2023-03-14T14:45:24;8.50;;;3.80;;
63975;SDS011;50167;47.958;21.780;2023-03-14T14:47:55;4.37;;;2.80;;
63975;SDS011;50167;47.958;21.780;2023-03-14T14:50:31;9.47;;;3.17;;
63975;SDS011;50167;47.958;21.780;2023-03-14T14:53:03;9.87;;;3.33;;
63975;SDS011;50167;47.958;21.780;2023-03-14T14:55:53;14.07;;;3.70;;
63975;SDS011;50167;47.958;21.780;2023-03-14T14:58:33;14.67;;;5.67;;
63975;SDS011;50167;47.958;21.780;2023-03-14T15:01:05;17.50;;;4.10;;
63975;SDS011;50167;47.958;21.780;2023-03-14T15:03:45;4.97;;;2.80;;
63975;SDS011;50167;47.958;21.780;2023-03-14T15:06:16;4.40;;;2.63;;
63975;SDS011;50167;47.958;21.780;2023-03-14T15:08:44;5.30;;;2.80;;
63975;SDS011;50167;47.958;21.780;2023-03-14T15:11:18;12.07;;;3.63;;
63975;SDS011;50167;47.958;21.780;2023-03-14T15:13:49;7.47;;;3.47;;
63975;SDS011;50167;47.958;21.780;2023-03-14T15:16:18;10.50;;;3.37;;
63975;SDS011;50167;47.958;21.780;2023-03-14T15:18:50;9.63;;;3.40;;
63975;SDS011;50167;47.958;21.780;2023-03-14T15:21:24;5.33;;;2.70;;
63975;SDS011;50167;47.958;21.780;2023-03-14T15:23:53;4.83;;;3.00;;
63975;SDS011;50167;47.958;21.780;2023-03-14T15:26:21;13.73;;;3.70;;
63975;SDS011;50167;47.958;21.780;2023-03-14T15:28:54;11.73;;;2.53;;
63975;SDS011;50167;47.958;21.780;2023-03-14T15:31:21;5.37;;;2.83;;
63975;SDS011;50167;47.958;21.780;2023-03-14T15:33:49;14.37;;;2.80;;
63975;SDS011;50167;47.958;21.780;2023-03-14T15:36:35;9.47;;;3.13;;
63975;SDS011;50167;47.958;21.780;2023-03-14T15:38:54;9.03;;;2.87;;
63975;SDS011;50167;47.958;21.780;2023-03-14T15:41:22;8.90;;;2.70;;
63975;SDS011;50167;47.958;21.780;2023-03-14T15:43:50;3.87;;;2.30;;
63975;SDS011;50167;47.958;21.780;2023-03-14T15:46:21;9.13;;;4.03;;
63975;SDS011;50167;47.958;21.780;2023-03-14T15:48:49;10.13;;;4.20;;
63975;SDS011;50167;47.958;21.780;2023-03-14T15:51:18;16.60;;;3.20;;
63975;SDS011;50167;47.958;21.780;2023-03-14T15:53:45;16.27;;;3.23;;
63975;SDS011;50167;47.958;21.780;2023-03-14T15:56:14;11.47;;;3.17;;
63975;SDS011;50167;47.958;21.780;2023-03-14T15:58:44;8.70;;;3.23;;
63975;SDS011;50167;47.958;21.780;2023-03-14T16:01:15;5.33;;;3.43;;
63975;SDS011;50167;47.958;21.780;2023-03-14T16:03:43;13.87;;;5.50;;
63975;SDS011;50167;47.958;21.780;2023-03-14T16:06:11;6.17;;;3.57;;
63975;SDS011;50167;47.958;21.780;2023-03-14T16:08:40;8.43;;;3.07;;
63975;SDS011;50167;47.958;21.780;2023-03-14T16:11:08;9.03;;;3.57;;